Time;durP1;ratioP1;P1;durP2;ratioP2;P2;SDS_P1;SDS_P2;PMS_P1;PMS_P2;Temp;Humidity;BMP_temperature;BMP_pressure;BME280_temperature;BME280_humidity;BME280_pressure;Samples;Min_cycle;Max_cycle;Signal;HPM_P1;HPM_P2
2023/08/19 00:00:49;;;;;;;14.43;8.57;;;;;;;;;;5031427;28;20038;-88
2023/08/19 00:03:14;;;;;;;15.93;9.23;;;;;;;;;;5031217;28;20079;-88
2023/08/19 00:05:40;;;;;;;14.55;8.90;;;;;;;;;;5031203;28;20045;-89
2023/08/19 00:08:05;;;;;;;16.40;9.02;;;;;;;;;;5014596;28;20021;-89
2023/08/19 00:10:31;;;;;;;13.68;9.48;;;;;;;;;;5015193;28;20409;-89
2023/08/19 00:12:56;;;;;;;12.98;9.10;;;;;;;;;;5013858;28;20044;-88
2023/08/19 00:15:22;;;;;;;14.15;8.60;;;;;;;;;;5015229;28;20128;-88
2023/08/19 00:17:47;;;;;;;12.00;8.82;;;;;;;;;;5014529;28;20021;-87
2023/08/19 00:20:13;;;;;;;12.63;8.73;;;;;;;;;;5032381;28;20061;-88
2023/08/19 00:22:38;;;;;;;12.77;8.57;;;;;;;;;;5031101;28;20082;-88
2023/08/19 00:25:04;;;;;;;14.63;8.55;;;;;;;;;;5030851;28;20037;-88
2023/08/19 00:27:30;;;;;;;16.42;9.07;;;;;;;;;;5032356;28;20060;-88
2023/08/19 00:29:55;;;;;;;12.68;8.52;;;;;;;;;;5014357;28;20134;-88
2023/08/19 00:32:21;;;;;;;14.55;8.38;;;;;;;;;;5030761;28;20063;-88
2023/08/19 00:34:47;;;;;;;14.90;8.73;;;;;;;;;;5031713;28;20170;-88
2023/08/19 00:37:12;;;;;;;12.15;8.30;;;;;;;;;;5014720;28;20100;-89
2023/08/19 00:39:38;;;;;;;11.70;8.63;;;;;;;;;;5031928;28;20030;-88
2023/08/19 00:42:04;;;;;;;11.98;9.02;;;;;;;;;;5032487;28;20025;-89
2023/08/19 00:44:33;;;;;;;14.93;8.77;;;;;;;;;;5033038;28;20037;-89
2023/08/19 00:46:59;;;;;;;14.90;8.52;;;;;;;;;;5032193;28;20022;-89
2023/08/19 00:49:24;;;;;;;15.48;8.68;;;;;;;;;;5014473;28;20042;-88
2023/08/19 00:51:51;;;;;;;16.58;9.20;;;;;;;;;;5033090;28;20029;-89
2023/08/19 00:54:16;;;;;;;13.75;8.88;;;;;;;;;;5031927;28;20083;-88
2023/08/19 00:56:42;;;;;;;13.63;10.30;;;;;;;;;;5031138;28;20028;-89
2023/08/19 00:59:08;;;;;;;19.33;10.60;;;;;;;;;;5030992;28;20036;-89
2023/08/19 01:01:33;;;;;;;18.65;10.55;;;;;;;;;;5014953;28;20423;-87
2023/08/19 01:03:59;;;;;;;16.50;9.77;;;;;;;;;;5031076;28;20056;-87
2023/08/19 01:06:26;;;;;;;13.18;9.35;;;;;;;;;;4998496;28;20408;-87
2023/08/19 01:08:55;;;;;;;17.45;9.43;;;;;;;;;;5031074;28;20059;-88
2023/08/19 01:11:39;;;;;;;15.25;8.95;;;;;;;;;;5014325;28;20026;-88
2023/08/19 01:14:15;;;;;;;14.75;9.25;;;;;;;;;;5031515;28;20511;-89
2023/08/19 01:16:40;;;;;;;13.90;9.10;;;;;;;;;;5031669;28;20150;-88
2023/08/19 01:19:06;;;;;;;13.45;8.52;;;;;;;;;;5014426;28;20687;-89
2023/08/19 01:21:32;;;;;;;18.90;8.73;;;;;;;;;;5013706;28;20397;-88
2023/08/19 01:24:00;;;;;;;13.90;8.63;;;;;;;;;;5015303;28;20090;-89
2023/08/19 01:26:26;;;;;;;14.27;8.25;;;;;;;;;;5017859;28;20033;-88
2023/08/19 01:28:51;;;;;;;15.75;8.43;;;;;;;;;;5034736;28;20036;-89
2023/08/19 01:31:18;;;;;;;12.02;8.68;;;;;;;;;;5034149;28;20408;-89
2023/08/19 01:33:43;;;;;;;16.85;9.50;;;;;;;;;;5035408;28;20014;-88
2023/08/19 01:36:18;;;;;;;14.73;9.00;;;;;;;;;;5017422;28;20048;-87
2023/08/19 01:38:49;;;;;;;12.32;8.70;;;;;;;;;;5050334;28;20040;-89
2023/08/19 01:41:15;;;;;;;12.05;8.77;;;;;;;;;;5017085;28;20044;-88
2023/08/19 01:43:40;;;;;;;14.15;9.75;;;;;;;;;;5017256;28;20468;-89
2023/08/19 01:46:06;;;;;;;16.30;9.55;;;;;;;;;;5034083;28;20083;-88
2023/08/19 01:48:31;;;;;;;14.98;10.00;;;;;;;;;;5017749;28;20435;-88
2023/08/19 01:50:57;;;;;;;13.88;9.75;;;;;;;;;;5034385;28;20465;-89
2023/08/19 01:53:22;;;;;;;11.00;9.27;;;;;;;;;;5033536;28;20068;-88
2023/08/19 01:55:48;;;;;;;15.45;9.90;;;;;;;;;;5033852;28;20084;-88
2023/08/19 01:58:13;;;;;;;14.70;9.20;;;;;;;;;;5016810;28;20025;-88
2023/08/19 02:00:39;;;;;;;12.55;9.00;;;;;;;;;;5033200;28;20045;-88
2023/08/19 02:03:05;;;;;;;12.20;9.30;;;;;;;;;;5017259;28;20112;-89
2023/08/19 02:05:31;;;;;;;13.10;9.10;;;;;;;;;;5034597;28;20033;-88
2023/08/19 02:07:57;;;;;;;10.38;8.60;;;;;;;;;;5001374;28;20030;-87
2023/08/19 02:10:22;;;;;;;15.95;9.25;;;;;;;;;;5035371;28;20088;-88
2023/08/19 02:12:47;;;;;;;12.25;9.02;;;;;;;;;;5035574;28;20064;-89
2023/08/19 02:15:14;;;;;;;11.00;8.95;;;;;;;;;;5033125;28;20029;-88
2023/08/19 02:17:39;;;;;;;13.43;9.07;;;;;;;;;;5016974;28;20439;-88
2023/08/19 02:20:06;;;;;;;12.60;8.80;;;;;;;;;;5033892;28;20042;-89
2023/08/19 02:22:31;;;;;;;13.80;8.88;;;;;;;;;;5017153;28;20033;-87
2023/08/19 02:24:57;;;;;;;13.93;8.77;;;;;;;;;;5032941;28;20559;-89
2023/08/19 02:27:24;;;;;;;12.85;8.55;;;;;;;;;;5034018;28;20113;-89
2023/08/19 02:29:49;;;;;;;12.68;8.48;;;;;;;;;;5016817;28;20041;-89
2023/08/19 02:32:15;;;;;;;13.52;9.55;;;;;;;;;;5016355;28;20029;-89
2023/08/19 02:34:40;;;;;;;13.98;9.10;;;;;;;;;;5016378;28;20445;-88
2023/08/19 02:37:06;;;;;;;16.48;8.98;;;;;;;;;;5032047;28;20103;-88
2023/08/19 02:39:31;;;;;;;16.83;9.68;;;;;;;;;;5033831;28;20156;-88
2023/08/19 02:41:57;;;;;;;13.80;9.00;;;;;;;;;;5034095;28;20110;-88
2023/08/19 02:44:22;;;;;;;16.90;9.52;;;;;;;;;;5016301;28;20045;-88
2023/08/19 02:46:48;;;;;;;15.38;8.88;;;;;;;;;;5032200;28;20025;-88
2023/08/19 02:49:13;;;;;;;16.17;9.38;;;;;;;;;;5016212;28;20033;-88
2023/08/19 02:51:39;;;;;;;12.27;9.48;;;;;;;;;;5033350;28;20033;-88
2023/08/19 02:54:04;;;;;;;15.43;11.18;;;;;;;;;;5049262;28;20041;-89
2023/08/19 02:56:30;;;;;;;13.60;10.77;;;;;;;;;;5032500;28;20515;-88
2023/08/19 02:58:55;;;;;;;13.70;10.77;;;;;;;;;;5032466;28;20421;-88
2023/08/19 03:01:21;;;;;;;19.25;12.07;;;;;;;;;;5032339;28;20117;-88
2023/08/19 03:03:46;;;;;;;15.73;11.20;;;;;;;;;;5033632;28;20053;-89
2023/08/19 03:06:12;;;;;;;14.82;11.90;;;;;;;;;;5017031;28;20031;-90
2023/08/19 03:08:37;;;;;;;15.13;10.75;;;;;;;;;;5016379;28;20076;-90
2023/08/19 03:11:03;;;;;;;15.10;9.88;;;;;;;;;;5033142;28;20550;-87
2023/08/19 03:13:29;;;;;;;18.65;11.05;;;;;;;;;;5032142;28;20147;-87
2023/08/19 03:15:57;;;;;;;16.67;11.98;;;;;;;;;;5015939;28;20022;-87
2023/08/19 03:18:23;;;;;;;17.60;12.15;;;;;;;;;;5016117;28;20037;-88
2023/08/19 03:20:53;;;;;;;16.73;11.95;;;;;;;;;;5033120;28;20222;-88
2023/08/19 03:23:19;;;;;;;18.38;11.73;;;;;;;;;;5031844;28;20046;-87
2023/08/19 03:25:50;;;;;;;15.27;11.88;;;;;;;;;;5015374;28;20030;-88
2023/08/19 03:28:17;;;;;;;15.70;12.27;;;;;;;;;;5031633;28;20040;-89
2023/08/19 03:30:43;;;;;;;16.58;11.60;;;;;;;;;;5015413;28;20136;-88
2023/08/19 03:33:08;;;;;;;17.77;11.45;;;;;;;;;;5032405;28;20136;-88
2023/08/19 03:35:34;;;;;;;15.93;11.90;;;;;;;;;;5033290;28;20029;-89
2023/08/19 03:38:00;;;;;;;14.80;11.85;;;;;;;;;;5033263;28;20029;-89
2023/08/19 03:40:25;;;;;;;16.58;10.73;;;;;;;;;;5015442;28;20025;-87
2023/08/19 03:42:51;;;;;;;16.08;10.38;;;;;;;;;;5032418;28;20033;-89
2023/08/19 03:45:16;;;;;;;15.63;9.27;;;;;;;;;;5014912;28;20404;-88
2023/08/19 03:47:42;;;;;;;18.55;10.45;;;;;;;;;;5030121;28;20412;-89
2023/08/19 03:50:07;;;;;;;14.52;9.73;;;;;;;;;;5032131;28;20449;-89
2023/08/19 03:52:33;;;;;;;15.27;10.07;;;;;;;;;;5031684;28;20500;-89
2023/08/19 03:54:58;;;;;;;15.80;9.75;;;;;;;;;;4999172;28;20041;-88
2023/08/19 03:57:24;;;;;;;11.25;8.95;;;;;;;;;;5031655;28;20033;-88
2023/08/19 03:59:50;;;;;;;15.10;9.88;;;;;;;;;;5014738;28;20025;-89
2023/08/19 04:02:17;;;;;;;17.25;9.60;;;;;;;;;;5030791;28;20124;-89
2023/08/19 04:04:58;;;;;;;17.60;10.15;;;;;;;;;;5014774;28;20412;-88
2023/08/19 04:07:24;;;;;;;12.77;9.27;;;;;;;;;;5014442;28;20029;-89
2023/08/19 04:09:49;;;;;;;13.45;9.57;;;;;;;;;;5014747;28;20539;-88
2023/08/19 04:12:15;;;;;;;13.55;10.02;;;;;;;;;;5032446;28;20511;-89
2023/08/19 04:14:42;;;;;;;14.43;9.52;;;;;;;;;;5031232;28;20041;-88
2023/08/19 04:17:07;;;;;;;14.30;10.55;;;;;;;;;;5015264;28;20025;-88
2023/08/19 04:19:33;;;;;;;14.73;9.98;;;;;;;;;;5031097;28;20017;-89
2023/08/19 04:21:59;;;;;;;15.30;10.27;;;;;;;;;;5031088;28;20065;-88
2023/08/19 04:24:24;;;;;;;15.18;10.63;;;;;;;;;;5031064;28;20045;-89
2023/08/19 04:26:50;;;;;;;13.35;9.75;;;;;;;;;;5031335;28;20523;-89
2023/08/19 04:29:17;;;;;;;14.35;10.18;;;;;;;;;;5014555;28;20025;-89
2023/08/19 04:31:42;;;;;;;15.40;11.27;;;;;;;;;;5014606;28;20133;-88
2023/08/19 04:34:08;;;;;;;18.10;11.73;;;;;;;;;;5014435;28;20025;-88
2023/08/19 04:36:34;;;;;;;16.77;11.85;;;;;;;;;;5030763;28;20485;-88
2023/08/19 04:38:59;;;;;;;17.65;11.25;;;;;;;;;;5014606;28;20028;-88
2023/08/19 04:41:25;;;;;;;17.23;11.43;;;;;;;;;;5014952;28;20528;-88
2023/08/19 04:43:51;;;;;;;16.85;11.73;;;;;;;;;;5032359;28;20182;-88
2023/08/19 04:46:17;;;;;;;22.10;12.18;;;;;;;;;;5015370;28;20132;-88
2023/08/19 04:48:43;;;;;;;16.40;10.98;;;;;;;;;;5015653;28;20508;-88
2023/08/19 04:51:08;;;;;;;17.73;11.57;;;;;;;;;;4998311;28;20140;-88
2023/08/19 04:53:34;;;;;;;15.40;10.88;;;;;;;;;;5014626;28;20053;-88
2023/08/19 04:56:02;;;;;;;18.60;10.98;;;;;;;;;;5031087;28;20041;-88
2023/08/19 04:58:27;;;;;;;14.30;10.48;;;;;;;;;;5014433;28;20116;-89
2023/08/19 05:00:53;;;;;;;14.70;11.20;;;;;;;;;;5036290;28;20052;-89
2023/08/19 05:03:20;;;;;;;16.95;10.63;;;;;;;;;;5035049;28;20551;-89
2023/08/19 05:05:45;;;;;;;16.60;10.73;;;;;;;;;;5035000;28;20135;-89
2023/08/19 05:08:11;;;;;;;16.38;10.43;;;;;;;;;;5035031;28;20033;-89
2023/08/19 05:10:37;;;;;;;17.20;11.15;;;;;;;;;;5018799;28;20552;-90
2023/08/19 05:13:02;;;;;;;18.63;10.40;;;;;;;;;;5018383;28;20479;-89
2023/08/19 05:15:28;;;;;;;15.40;10.50;;;;;;;;;;5018373;28;20033;-89
2023/08/19 05:17:53;;;;;;;17.23;10.65;;;;;;;;;;5034991;28;20036;-89
2023/08/19 05:20:19;;;;;;;18.63;11.23;;;;;;;;;;5035058;28;20149;-88
2023/08/19 05:22:44;;;;;;;17.48;11.32;;;;;;;;;;5018430;28;20037;-89
2023/08/19 05:25:10;;;;;;;15.98;10.90;;;;;;;;;;5035717;28;20160;-89
2023/08/19 05:27:36;;;;;;;17.58;10.57;;;;;;;;;;5034633;28;20107;-88
2023/08/19 05:30:04;;;;;;;17.85;10.43;;;;;;;;;;5035650;28;20041;-88
2023/08/19 05:32:29;;;;;;;16.23;10.85;;;;;;;;;;5034801;28;20037;-89
2023/08/19 05:34:55;;;;;;;17.83;10.80;;;;;;;;;;5035999;28;20033;-89
2023/08/19 05:37:20;;;;;;;17.10;10.05;;;;;;;;;;5034848;28;20087;-89
2023/08/19 05:39:46;;;;;;;17.42;10.35;;;;;;;;;;5034329;28;20029;-89
2023/08/19 05:42:12;;;;;;;15.52;10.05;;;;;;;;;;5036811;28;20377;-88
2023/08/19 05:44:37;;;;;;;17.13;10.02;;;;;;;;;;5035588;28;20045;-87
2023/08/19 05:47:03;;;;;;;15.98;9.85;;;;;;;;;;5035412;28;20515;-89
2023/08/19 05:49:29;;;;;;;17.08;11.20;;;;;;;;;;5017749;28;20065;-88
2023/08/19 05:51:55;;;;;;;19.98;10.57;;;;;;;;;;5018302;28;20033;-88
2023/08/19 05:54:20;;;;;;;14.27;9.73;;;;;;;;;;5035631;28;20377;-88
2023/08/19 05:56:46;;;;;;;16.35;10.23;;;;;;;;;;5035372;28;20047;-88
2023/08/19 05:59:11;;;;;;;16.25;9.60;;;;;;;;;;5019025;28;20554;-89
2023/08/19 06:01:37;;;;;;;17.73;9.80;;;;;;;;;;5018805;28;20107;-87
2023/08/19 06:04:02;;;;;;;14.38;8.90;;;;;;;;;;5035516;28;20068;-89
2023/08/19 06:06:28;;;;;;;12.55;9.10;;;;;;;;;;5035098;28;20051;-89
2023/08/19 06:08:53;;;;;;;15.98;8.55;;;;;;;;;;5034381;28;20140;-87
2023/08/19 06:11:19;;;;;;;14.52;9.30;;;;;;;;;;5033143;28;20037;-88
2023/08/19 06:13:44;;;;;;;15.05;8.77;;;;;;;;;;5034313;28;20063;-88
2023/08/19 06:16:10;;;;;;;18.75;9.05;;;;;;;;;;5035335;28;20032;-88
2023/08/19 06:18:35;;;;;;;12.38;8.75;;;;;;;;;;5035933;28;20041;-88
2023/08/19 06:21:02;;;;;;;15.43;8.60;;;;;;;;;;5035048;28;20114;-88
2023/08/19 06:23:27;;;;;;;14.23;8.35;;;;;;;;;;5035787;28;20044;-88
2023/08/19 06:25:53;;;;;;;15.88;8.60;;;;;;;;;;5035074;28;20404;-89
2023/08/19 06:28:19;;;;;;;16.15;9.23;;;;;;;;;;5017645;28;20068;-89
2023/08/19 06:30:45;;;;;;;16.92;8.57;;;;;;;;;;5033149;28;20037;-87
2023/08/19 06:33:11;;;;;;;14.15;8.32;;;;;;;;;;5034207;28;20116;-87
2023/08/19 06:35:36;;;;;;;15.93;9.98;;;;;;;;;;5035100;28;20163;-88
2023/08/19 06:38:21;;;;;;;10.80;8.25;;;;;;;;;;5033894;28;20029;-88
2023/08/19 06:40:58;;;;;;;13.35;8.45;;;;;;;;;;5034139;28;20029;-88
2023/08/19 06:43:26;;;;;;;16.67;10.02;;;;;;;;;;5034169;28;20571;-89
2023/08/19 06:45:52;;;;;;;14.45;8.43;;;;;;;;;;5017189;28;20040;-88
2023/08/19 06:48:18;;;;;;;18.50;9.23;;;;;;;;;;5017021;28;20033;-88
2023/08/19 06:50:44;;;;;;;13.73;8.70;;;;;;;;;;5035762;28;20420;-89
2023/08/19 06:53:10;;;;;;;13.73;9.40;;;;;;;;;;5035745;28;20523;-88
2023/08/19 06:55:39;;;;;;;17.67;8.57;;;;;;;;;;5016679;28;20037;-88
2023/08/19 06:58:07;;;;;;;17.00;9.88;;;;;;;;;;5033509;28;20376;-88
2023/08/19 07:00:33;;;;;;;18.83;9.57;;;;;;;;;;5016208;28;20033;-88
2023/08/19 07:02:58;;;;;;;14.32;9.32;;;;;;;;;;5016347;28;20037;-87
2023/08/19 07:05:24;;;;;;;17.38;9.98;;;;;;;;;;5033964;28;20037;-88
2023/08/19 07:07:50;;;;;;;19.02;9.57;;;;;;;;;;5032652;28;20092;-88
2023/08/19 07:10:15;;;;;;;16.08;8.90;;;;;;;;;;5032784;28;20480;-88
2023/08/19 07:12:41;;;;;;;14.40;9.40;;;;;;;;;;5033849;28;20033;-89
2023/08/19 07:15:11;;;;;;;16.80;9.25;;;;;;;;;;5034293;28;20029;-89
2023/08/19 07:17:46;;;;;;;16.95;8.90;;;;;;;;;;5017968;28;20033;-88
2023/08/19 07:20:16;;;;;;;17.40;9.70;;;;;;;;;;5033414;28;20045;-89
2023/08/19 07:22:42;;;;;;;14.52;9.00;;;;;;;;;;5016701;28;20051;-88
2023/08/19 07:25:08;;;;;;;14.13;8.68;;;;;;;;;;5016244;28;20029;-89
2023/08/19 07:27:34;;;;;;;11.68;8.07;;;;;;;;;;5015839;28;20033;-89
2023/08/19 07:30:02;;;;;;;15.52;8.75;;;;;;;;;;5033582;28;20075;-88
2023/08/19 07:32:27;;;;;;;15.68;7.65;;;;;;;;;;5016678;28;20125;-88
2023/08/19 07:34:53;;;;;;;19.33;8.40;;;;;;;;;;5048415;28;20128;-88
2023/08/19 07:37:18;;;;;;;13.77;7.75;;;;;;;;;;5016082;28;20026;-89
2023/08/19 07:39:43;;;;;;;14.80;8.50;;;;;;;;;;5033833;28;20030;-89
2023/08/19 07:42:09;;;;;;;18.65;8.27;;;;;;;;;;5032181;28;20044;-89
2023/08/19 07:44:35;;;;;;;13.82;7.75;;;;;;;;;;5033645;28;20026;-88
2023/08/19 07:47:00;;;;;;;12.20;7.40;;;;;;;;;;5032518;28;20128;-88
2023/08/19 07:49:26;;;;;;;13.20;7.43;;;;;;;;;;5034256;28;20038;-88
2023/08/19 07:51:51;;;;;;;9.60;6.68;;;;;;;;;;5033410;28;20029;-89
2023/08/19 07:54:21;;;;;;;9.75;6.28;;;;;;;;;;5048888;28;20116;-89
2023/08/19 07:56:47;;;;;;;11.40;6.60;;;;;;;;;;5032582;28;20382;-88
2023/08/19 07:59:12;;;;;;;9.30;6.30;;;;;;;;;;5032474;28;20061;-89
2023/08/19 08:01:37;;;;;;;12.48;6.50;;;;;;;;;;5033288;28;20104;-88
2023/08/19 08:04:03;;;;;;;9.25;5.85;;;;;;;;;;5032822;28;20280;-88
2023/08/19 08:06:29;;;;;;;9.57;6.00;;;;;;;;;;5031925;28;20136;-88
2023/08/19 08:08:54;;;;;;;10.77;6.00;;;;;;;;;;5032558;28;20037;-89
2023/08/19 08:11:20;;;;;;;11.90;6.30;;;;;;;;;;5016744;28;20060;-89
2023/08/19 08:13:45;;;;;;;11.25;6.88;;;;;;;;;;5034399;28;20404;-89
2023/08/19 08:16:11;;;;;;;12.35;6.57;;;;;;;;;;5033304;28;20032;-89
2023/08/19 08:18:36;;;;;;;13.07;7.00;;;;;;;;;;5033938;28;20531;-90
2023/08/19 08:21:02;;;;;;;12.32;7.68;;;;;;;;;;5032188;28;20049;-90
2023/08/19 08:23:27;;;;;;;16.02;8.10;;;;;;;;;;5031912;28;20026;-89
2023/08/19 08:25:52;;;;;;;15.98;7.63;;;;;;;;;;5033315;28;20045;-89
2023/08/19 08:28:18;;;;;;;10.95;7.30;;;;;;;;;;5032301;28;20521;-89
2023/08/19 08:30:43;;;;;;;15.40;7.53;;;;;;;;;;5032926;28;20033;-89
2023/08/19 08:33:09;;;;;;;17.25;7.88;;;;;;;;;;5033041;28;20041;-89
2023/08/19 08:35:34;;;;;;;12.27;7.10;;;;;;;;;;5032890;28;20488;-90
2023/08/19 08:38:00;;;;;;;10.50;7.30;;;;;;;;;;5034954;28;20144;-89
2023/08/19 08:40:25;;;;;;;18.92;7.88;;;;;;;;;;5032583;28;20400;-89
2023/08/19 08:42:51;;;;;;;16.80;7.55;;;;;;;;;;5033591;28;20582;-89
2023/08/19 08:45:16;;;;;;;15.80;7.50;;;;;;;;;;5033735;28;20503;-89
2023/08/19 08:47:42;;;;;;;15.13;7.88;;;;;;;;;;5034677;28;20037;-90
2023/08/19 08:50:08;;;;;;;15.00;7.47;;;;;;;;;;5035035;28;20032;-89
2023/08/19 08:52:34;;;;;;;16.23;8.13;;;;;;;;;;5034393;28;20120;-89
2023/08/19 08:54:59;;;;;;;11.65;7.20;;;;;;;;;;5033358;28;20102;-90
2023/08/19 08:57:25;;;;;;;12.82;7.35;;;;;;;;;;5031692;28;20037;-90
2023/08/19 08:59:52;;;;;;;11.57;8.00;;;;;;;;;;5033075;28;20507;-88
2023/08/19 09:02:18;;;;;;;17.40;7.40;;;;;;;;;;5031618;28;20041;-90
2023/08/19 09:04:44;;;;;;;13.70;8.43;;;;;;;;;;5031329;28;20554;-90
2023/08/19 09:07:10;;;;;;;11.25;7.35;;;;;;;;;;5015852;28;20056;-90
2023/08/19 09:09:36;;;;;;;10.50;7.40;;;;;;;;;;5015154;28;20029;-90
2023/08/19 09:12:02;;;;;;;11.90;6.75;;;;;;;;;;5015601;28;20033;-89
2023/08/19 09:14:43;;;;;;;11.50;6.70;;;;;;;;;;5015134;28;20032;-90
2023/08/19 09:17:12;;;;;;;13.32;7.07;;;;;;;;;;5033029;28;20040;-90
2023/08/19 09:19:38;;;;;;;16.98;7.40;;;;;;;;;;5032636;28;20443;-89
2023/08/19 09:22:10;;;;;;;9.70;6.20;;;;;;;;;;5033141;28;20041;-90
2023/08/19 09:24:36;;;;;;;10.52;6.20;;;;;;;;;;5032070;28;20036;-90
2023/08/19 09:27:01;;;;;;;8.02;5.53;;;;;;;;;;5033651;28;20026;-89
2023/08/19 09:29:27;;;;;;;13.00;6.38;;;;;;;;;;5032730;28;20073;-88
2023/08/19 09:31:53;;;;;;;10.07;5.60;;;;;;;;;;5032877;28;20060;-85
2023/08/19 09:34:19;;;;;;;9.40;5.95;;;;;;;;;;5034166;28;20112;-88
2023/08/19 09:36:44;;;;;;;9.15;5.85;;;;;;;;;;5015860;28;20529;-90
2023/08/19 09:39:10;;;;;;;9.35;6.30;;;;;;;;;;5017067;28;20030;-90
2023/08/19 09:41:36;;;;;;;9.52;5.65;;;;;;;;;;5033610;28;20026;-90
2023/08/19 09:44:02;;;;;;;8.13;6.00;;;;;;;;;;5018237;28;20037;-89
2023/08/19 09:46:31;;;;;;;7.13;5.50;;;;;;;;;;5036731;28;20033;-91
2023/08/19 09:48:57;;;;;;;7.40;5.43;;;;;;;;;;5037325;28;20091;-90
2023/08/19 09:51:23;;;;;;;9.18;5.85;;;;;;;;;;5020789;28;20471;-90
2023/08/19 09:53:49;;;;;;;12.57;5.65;;;;;;;;;;5035850;28;20205;-90
2023/08/19 09:56:26;;;;;;;9.63;5.90;;;;;;;;;;5035640;28;20397;-90
2023/08/19 09:58:56;;;;;;;9.00;5.85;;;;;;;;;;5003724;28;20030;-91
2023/08/19 10:01:22;;;;;;;10.00;5.80;;;;;;;;;;5037345;28;20112;-90
2023/08/19 10:03:49;;;;;;;9.82;5.80;;;;;;;;;;5020549;28;20063;-90
2023/08/19 10:06:23;;;;;;;10.32;6.00;;;;;;;;;;5037627;28;20033;-89
2023/08/19 10:08:50;;;;;;;9.40;5.90;;;;;;;;;;5036969;28;20116;-91
2023/08/19 10:11:16;;;;;;;9.82;6.22;;;;;;;;;;5003053;28;20036;-89
2023/08/19 10:13:42;;;;;;;11.45;5.95;;;;;;;;;;5035805;28;20409;-89
2023/08/19 10:16:07;;;;;;;9.55;5.57;;;;;;;;;;5034643;28;20433;-90
2023/08/19 10:18:35;;;;;;;13.30;6.28;;;;;;;;;;5035682;28;20417;-90
2023/08/19 10:21:04;;;;;;;7.95;5.78;;;;;;;;;;5036262;28;20049;-89
2023/08/19 10:23:30;;;;;;;7.80;5.70;;;;;;;;;;5036143;28;20497;-90
2023/08/19 10:25:55;;;;;;;9.38;5.85;;;;;;;;;;5019306;28;20037;-90
2023/08/19 10:28:24;;;;;;;14.57;5.70;;;;;;;;;;5035471;28;20033;-90
2023/08/19 10:31:09;;;;;;;10.00;5.65;;;;;;;;;;5036275;28;20091;-90
2023/08/19 10:33:44;;;;;;;9.60;5.88;;;;;;;;;;5036675;28;20400;-90
2023/08/19 10:36:16;;;;;;;9.77;5.03;;;;;;;;;;5002183;28;20041;-91
2023/08/19 10:38:55;;;;;;;8.40;5.20;;;;;;;;;;5034521;28;20033;-90
2023/08/19 10:41:22;;;;;;;8.52;5.50;;;;;;;;;;5035715;28;20079;-89
2023/08/19 10:43:49;;;;;;;8.52;5.72;;;;;;;;;;5036567;28;20055;-89
2023/08/19 10:46:20;;;;;;;8.15;5.88;;;;;;;;;;5034952;28;20405;-89
2023/08/19 10:48:48;;;;;;;11.43;5.60;;;;;;;;;;5035289;28;20037;-90
2023/08/19 10:51:14;;;;;;;6.65;5.47;;;;;;;;;;5017718;28;20476;-90
2023/08/19 10:53:47;;;;;;;9.48;7.72;;;;;;;;;;5002781;28;20037;-92
2023/08/19 10:56:13;;;;;;;9.07;5.57;;;;;;;;;;5018724;28;20519;-91
2023/08/19 10:58:38;;;;;;;9.40;5.63;;;;;;;;;;5034202;28;20033;-92
2023/08/19 11:01:04;;;;;;;8.00;5.75;;;;;;;;;;5018273;28;20040;-91
2023/08/19 11:03:30;;;;;;;6.85;5.40;;;;;;;;;;5034655;28;20059;-91
2023/08/19 11:05:56;;;;;;;5.97;5.18;;;;;;;;;;5035449;28;20065;-89
2023/08/19 11:08:22;;;;;;;8.45;5.00;;;;;;;;;;5034615;28;20400;-91
2023/08/19 11:10:48;;;;;;;9.23;5.10;;;;;;;;;;5035403;28;20029;-90
2023/08/19 11:13:13;;;;;;;5.78;4.90;;;;;;;;;;5034816;28;20083;-89
2023/08/19 11:15:42;;;;;;;8.80;5.30;;;;;;;;;;5017656;28;20155;-92
2023/08/19 11:18:07;;;;;;;11.10;5.07;;;;;;;;;;5034334;28;20021;-89
2023/08/19 11:20:33;;;;;;;8.73;5.00;;;;;;;;;;5033492;28;20106;-91
2023/08/19 11:22:59;;;;;;;10.07;5.28;;;;;;;;;;5034549;28;20530;-89
2023/08/19 11:25:32;;;;;;;8.27;5.00;;;;;;;;;;5034483;28;20037;-89
2023/08/19 11:27:58;;;;;;;8.00;4.90;;;;;;;;;;5034496;28;20128;-91
2023/08/19 11:30:24;;;;;;;6.90;4.70;;;;;;;;;;5035511;28;20068;-87
2023/08/19 11:32:49;;;;;;;11.75;5.07;;;;;;;;;;5035768;28;20037;-90
2023/08/19 11:35:15;;;;;;;9.05;4.75;;;;;;;;;;5034973;28;20064;-90
2023/08/19 11:37:41;;;;;;;9.65;5.18;;;;;;;;;;5035128;28;20030;-90
2023/08/19 11:40:08;;;;;;;10.18;4.90;;;;;;;;;;5035432;28;20032;-90
2023/08/19 11:42:33;;;;;;;5.80;3.90;;;;;;;;;;5033862;28;20041;-91
2023/08/19 11:44:59;;;;;;;6.20;4.43;;;;;;;;;;5034693;28;20091;-90
2023/08/19 11:47:25;;;;;;;5.05;3.70;;;;;;;;;;5017648;28;20068;-89
2023/08/19 11:49:51;;;;;;;7.65;4.35;;;;;;;;;;5033710;28;20032;-91
2023/08/19 11:52:20;;;;;;;6.78;3.78;;;;;;;;;;5034518;28;20604;-91
2023/08/19 11:55:01;;;;;;;5.10;4.03;;;;;;;;;;5035765;28;20025;-91
2023/08/19 11:57:31;;;;;;;7.45;3.70;;;;;;;;;;5034609;28;20524;-90
2023/08/19 11:59:56;;;;;;;6.10;5.35;;;;;;;;;;5017272;28;20042;-90
2023/08/19 12:02:22;;;;;;;8.40;5.05;;;;;;;;;;5035216;28;20033;-91
2023/08/19 12:04:47;;;;;;;7.28;3.88;;;;;;;;;;5017321;28;20037;-91
2023/08/19 12:07:13;;;;;;;7.18;4.05;;;;;;;;;;5016806;28;20088;-90
2023/08/19 12:09:40;;;;;;;6.40;3.92;;;;;;;;;;5032562;28;20516;-89
2023/08/19 12:12:09;;;;;;;6.70;4.13;;;;;;;;;;5017844;28;20037;-90
2023/08/19 12:14:34;;;;;;;7.43;4.18;;;;;;;;;;5035174;28;20068;-91
2023/08/19 12:17:00;;;;;;;6.35;4.07;;;;;;;;;;5033610;28;20037;-90
2023/08/19 12:19:26;;;;;;;7.55;4.22;;;;;;;;;;5015964;28;20029;-90
2023/08/19 12:21:51;;;;;;;7.63;4.80;;;;;;;;;;5032827;28;20052;-90
2023/08/19 12:24:16;;;;;;;7.90;4.07;;;;;;;;;;5032815;28;20055;-90
2023/08/19 12:26:42;;;;;;;6.20;3.90;;;;;;;;;;5032595;28;20133;-90
2023/08/19 12:29:07;;;;;;;7.22;3.92;;;;;;;;;;4999855;28;20468;-90
2023/08/19 12:31:33;;;;;;;8.20;4.10;;;;;;;;;;5034115;28;20152;-90
2023/08/19 12:33:58;;;;;;;5.38;4.10;;;;;;;;;;5016825;28;20048;-90
2023/08/19 12:36:24;;;;;;;5.30;3.92;;;;;;;;;;5033180;28;20052;-90
2023/08/19 12:38:49;;;;;;;8.00;4.70;;;;;;;;;;5033245;28;20067;-91
2023/08/19 12:41:15;;;;;;;7.00;4.60;;;;;;;;;;5034658;28;20077;-89
2023/08/19 12:43:40;;;;;;;8.40;4.03;;;;;;;;;;5017658;28;20500;-89
2023/08/19 12:46:06;;;;;;;10.20;5.07;;;;;;;;;;5016726;28;20508;-89
2023/08/19 12:48:32;;;;;;;8.40;4.90;;;;;;;;;;5033634;28;20044;-89
2023/08/19 12:50:57;;;;;;;7.00;4.85;;;;;;;;;;5033035;28;20041;-89
2023/08/19 12:53:22;;;;;;;9.00;4.45;;;;;;;;;;5034198;28;20022;-90
2023/08/19 12:55:48;;;;;;;5.90;4.40;;;;;;;;;;5033991;28;20026;-89
2023/08/19 12:58:13;;;;;;;11.38;4.57;;;;;;;;;;5033301;28;20030;-90
2023/08/19 13:00:39;;;;;;;9.85;4.70;;;;;;;;;;5033168;28;20459;-90
2023/08/19 13:03:04;;;;;;;8.23;3.75;;;;;;;;;;5034326;28;20044;-91
2023/08/19 13:05:30;;;;;;;10.45;4.70;;;;;;;;;;5033026;28;20064;-90
2023/08/19 13:07:56;;;;;;;8.13;4.35;;;;;;;;;;5032855;28;20029;-90
2023/08/19 13:10:22;;;;;;;10.43;4.40;;;;;;;;;;5015812;28;20034;-91
2023/08/19 13:12:49;;;;;;;8.48;4.82;;;;;;;;;;5034133;28;20029;-90
2023/08/19 13:15:16;;;;;;;6.38;4.32;;;;;;;;;;5032752;28;20124;-90
2023/08/19 13:17:42;;;;;;;8.05;4.40;;;;;;;;;;5032483;28;20026;-91
2023/08/19 13:20:07;;;;;;;7.20;4.38;;;;;;;;;;5033352;28;20148;-90
2023/08/19 13:22:33;;;;;;;4.50;3.08;;;;;;;;;;5036560;28;20117;-90
2023/08/19 13:24:59;;;;;;;5.47;4.00;;;;;;;;;;5019700;28;20056;-91
2023/08/19 13:27:24;;;;;;;6.40;4.15;;;;;;;;;;5035642;28;20503;-90
2023/08/19 13:29:50;;;;;;;6.80;3.85;;;;;;;;;;5036400;28;20037;-90
2023/08/19 13:32:16;;;;;;;5.68;3.88;;;;;;;;;;5037075;28;20452;-90
2023/08/19 13:34:42;;;;;;;5.32;3.78;;;;;;;;;;5037973;28;20500;-90
2023/08/19 13:37:08;;;;;;;8.40;3.80;;;;;;;;;;5035390;28;20025;-90
2023/08/19 13:39:33;;;;;;;8.45;4.00;;;;;;;;;;5037211;28;20036;-90
2023/08/19 13:41:59;;;;;;;7.88;3.60;;;;;;;;;;5036356;28;20029;-91
2023/08/19 13:44:28;;;;;;;6.13;3.95;;;;;;;;;;5035650;28;20041;-90
2023/08/19 13:46:53;;;;;;;6.80;4.07;;;;;;;;;;5019464;28;20382;-90
2023/08/19 13:49:19;;;;;;;5.18;3.10;;;;;;;;;;5034981;28;20041;-90
2023/08/19 13:51:46;;;;;;;4.50;3.22;;;;;;;;;;5002987;28;20025;-90
2023/08/19 13:54:11;;;;;;;5.43;4.40;;;;;;;;;;5035394;28;20045;-90
2023/08/19 13:56:37;;;;;;;8.85;4.57;;;;;;;;;;5019245;28;20035;-91
2023/08/19 13:59:03;;;;;;;5.53;4.72;;;;;;;;;;5019320;28;20179;-90
2023/08/19 14:01:28;;;;;;;7.00;3.92;;;;;;;;;;5036342;28;20025;-90
2023/08/19 14:03:54;;;;;;;8.00;4.50;;;;;;;;;;5034950;28;20037;-90
2023/08/19 14:06:19;;;;;;;5.07;3.83;;;;;;;;;;5035891;28;20037;-89
2023/08/19 14:08:45;;;;;;;5.05;3.92;;;;;;;;;;5034962;28;20033;-90
2023/08/19 14:11:12;;;;;;;6.70;4.50;;;;;;;;;;5035398;28;20032;-90
2023/08/19 14:13:38;;;;;;;6.82;4.40;;;;;;;;;;5035000;28;20128;-90
2023/08/19 14:16:04;;;;;;;9.43;5.10;;;;;;;;;;5018649;28;20029;-91
2023/08/19 14:18:30;;;;;;;6.47;4.50;;;;;;;;;;5035525;28;20025;-89
2023/08/19 14:20:55;;;;;;;9.13;4.50;;;;;;;;;;5017937;28;20566;-89
2023/08/19 14:23:20;;;;;;;9.43;4.72;;;;;;;;;;5034857;28;20037;-89
2023/08/19 14:25:46;;;;;;;6.43;4.50;;;;;;;;;;5035993;28;20029;-89